sensor_id;sensor_type;location;lat;lon;timestamp;pressure;altitude;pressure_sealevel;temperature;humidity
19795;BME280;10057;59.402;17.866;2023-04-28T00:01:11;100923.22;;;4.94;65.50
19795;BME280;10057;59.402;17.866;2023-04-28T00:03:38;100922.34;;;4.93;65.34
19795;BME280;10057;59.402;17.866;2023-04-28T00:06:05;100917.06;;;4.96;65.28
19795;BME280;10057;59.402;17.866;2023-04-28T00:08:32;100924.03;;;4.99;65.76
19795;BME280;10057;59.402;17.866;2023-04-28T00:10:58;100920.59;;;4.94;65.57
19795;BME280;10057;59.402;17.866;2023-04-28T00:13:26;100924.16;;;4.90;65.46
19795;BME280;10057;59.402;17.866;2023-04-28T00:15:53;100928.56;;;4.85;65.67
19795;BME280;10057;59.402;17.866;2023-04-28T00:18:20;100930.34;;;4.84;65.99
19795;BME280;10057;59.402;17.866;2023-04-28T00:20:47;100930.38;;;4.80;65.72
19795;BME280;10057;59.402;17.866;2023-04-28T00:23:14;100934.78;;;4.79;65.39
19795;BME280;10057;59.402;17.866;2023-04-28T00:25:41;100940.03;;;4.78;65.69
19795;BME280;10057;59.402;17.866;2023-04-28T00:28:07;100929.59;;;4.71;65.74
19795;BME280;10057;59.402;17.866;2023-04-28T00:30:34;100926.16;;;4.63;66.26
19795;BME280;10057;59.402;17.866;2023-04-28T00:33:01;100933.25;;;4.57;65.97
19795;BME280;10057;59.402;17.866;2023-04-28T00:35:28;100935.03;;;4.53;65.67
19795;BME280;10057;59.402;17.866;2023-04-28T00:37:54;100932.44;;;4.47;66.10
19795;BME280;10057;59.402;17.866;2023-04-28T00:40:21;100942.13;;;4.45;65.90
19795;BME280;10057;59.402;17.866;2023-04-28T00:42:48;100931.66;;;4.39;65.89
19795;BME280;10057;59.402;17.866;2023-04-28T00:45:14;100946.56;;;4.37;65.93
19795;BME280;10057;59.402;17.866;2023-04-28T00:47:41;100948.34;;;4.35;66.34
19795;BME280;10057;59.402;17.866;2023-04-28T00:50:09;100952.72;;;4.33;66.29
19795;BME280;10057;59.402;17.866;2023-04-28T00:52:37;100954.47;;;4.32;65.85
19795;BME280;10057;59.402;17.866;2023-04-28T00:55:04;100951.88;;;4.29;66.08
19795;BME280;10057;59.402;17.866;2023-04-28T00:57:31;100952.78;;;4.23;66.12
19795;BME280;10057;59.402;17.866;2023-04-28T00:59:58;100944.94;;;4.22;65.97
19795;BME280;10057;59.402;17.866;2023-04-28T01:02:25;100952.84;;;4.17;66.45
19795;BME280;10057;59.402;17.866;2023-04-28T01:04:52;100953.72;;;4.13;66.63
19795;BME280;10057;59.402;17.866;2023-04-28T01:07:19;100956.44;;;4.07;66.11
19795;BME280;10057;59.402;17.866;2023-04-28T01:09:47;100956.44;;;4.07;66.25
19795;BME280;10057;59.402;17.866;2023-04-28T01:12:13;100953.78;;;4.06;66.13
19795;BME280;10057;59.402;17.866;2023-04-28T01:14:40;100955.59;;;4.03;66.16
19795;BME280;10057;59.402;17.866;2023-04-28T01:17:07;100955.63;;;3.93;66.54
19795;BME280;10057;59.402;17.866;2023-04-28T01:19:34;100954.84;;;3.82;66.72
19795;BME280;10057;59.402;17.866;2023-04-28T01:22:01;100964.50;;;3.72;66.71
19795;BME280;10057;59.402;17.866;2023-04-28T01:24:28;100958.47;;;3.59;66.87
19795;BME280;10057;59.402;17.866;2023-04-28T01:26:55;100959.41;;;3.49;67.02
19795;BME280;10057;59.402;17.866;2023-04-28T01:29:21;100963.78;;;3.41;67.23
19795;BME280;10057;59.402;17.866;2023-04-28T01:31:48;100957.69;;;3.31;67.45
19795;BME280;10057;59.402;17.866;2023-04-28T01:34:15;100965.59;;;3.26;67.70
19795;BME280;10057;59.402;17.866;2023-04-28T01:36:42;100964.72;;;3.23;67.67
19795;BME280;10057;59.402;17.866;2023-04-28T01:39:09;100968.22;;;3.20;68.06
19795;BME280;10057;59.402;17.866;2023-04-28T01:41:36;100964.75;;;3.17;68.08
19795;BME280;10057;59.402;17.866;2023-04-28T01:44:02;100972.63;;;3.15;68.06
19795;BME280;10057;59.402;17.866;2023-04-28T01:46:30;100970.03;;;3.09;68.15
19795;BME280;10057;59.402;17.866;2023-04-28T01:48:57;100969.16;;;3.07;68.14
19795;BME280;10057;59.402;17.866;2023-04-28T01:51:24;100971.78;;;3.04;68.19
19795;BME280;10057;59.402;17.866;2023-04-28T01:53:50;100967.41;;;3.00;68.13
19795;BME280;10057;59.402;17.866;2023-04-28T01:56:17;100976.16;;;2.99;68.63
19795;BME280;10057;59.402;17.866;2023-04-28T01:58:44;100961.34;;;2.95;68.70
19795;BME280;10057;59.402;17.866;2023-04-28T02:01:11;100967.44;;;2.89;68.71
19795;BME280;10057;59.402;17.866;2023-04-28T02:03:37;100965.69;;;2.87;68.93
19795;BME280;10057;59.402;17.866;2023-04-28T02:06:04;100963.97;;;2.84;68.81
19795;BME280;10057;59.402;17.866;2023-04-28T02:08:31;100966.59;;;2.82;69.09
19795;BME280;10057;59.402;17.866;2023-04-28T02:10:58;100966.59;;;2.81;68.96
19795;BME280;10057;59.402;17.866;2023-04-28T02:13:26;100976.22;;;2.80;68.80
19795;BME280;10057;59.402;17.866;2023-04-28T02:15:53;100976.22;;;2.77;69.25
19795;BME280;10057;59.402;17.866;2023-04-28T02:18:20;100974.47;;;2.75;69.15
19795;BME280;10057;59.402;17.866;2023-04-28T02:20:46;100978.81;;;2.73;69.06
19795;BME280;10057;59.402;17.866;2023-04-28T02:23:13;100978.81;;;2.70;69.37
19795;BME280;10057;59.402;17.866;2023-04-28T02:25:40;100986.69;;;2.65;69.33
19795;BME280;10057;59.402;17.866;2023-04-28T02:28:06;100983.19;;;2.63;69.49
19795;BME280;10057;59.402;17.866;2023-04-28T02:30:33;100988.47;;;2.60;69.26
19795;BME280;10057;59.402;17.866;2023-04-28T02:33:00;100988.47;;;2.60;69.83
19795;BME280;10057;59.402;17.866;2023-04-28T02:35:26;100988.47;;;2.57;69.87
19795;BME280;10057;59.402;17.866;2023-04-28T02:37:53;100991.94;;;2.56;70.34
19795;BME280;10057;59.402;17.866;2023-04-28T02:40:20;100998.06;;;2.56;70.11
19795;BME280;10057;59.402;17.866;2023-04-28T02:42:47;100989.31;;;2.56;70.34
19795;BME280;10057;59.402;17.866;2023-04-28T02:45:13;100990.19;;;2.55;70.30
19795;BME280;10057;59.402;17.866;2023-04-28T02:47:40;100992.84;;;2.56;70.31
19795;BME280;10057;59.402;17.866;2023-04-28T02:50:07;100999.81;;;2.57;70.76
19795;BME280;10057;59.402;17.866;2023-04-28T02:52:34;100989.31;;;2.59;70.70
19795;BME280;10057;59.402;17.866;2023-04-28T02:55:01;101000.66;;;2.63;70.58
19795;BME280;10057;59.402;17.866;2023-04-28T02:57:29;100998.03;;;2.66;71.02
19795;BME280;10057;59.402;17.866;2023-04-28T02:59:56;101000.69;;;2.67;71.04
19795;BME280;10057;59.402;17.866;2023-04-28T03:02:22;101001.56;;;2.71;71.04
19795;BME280;10057;59.402;17.866;2023-04-28T03:04:49;101002.41;;;2.71;70.88
19795;BME280;10057;59.402;17.866;2023-04-28T03:07:16;101001.56;;;2.74;71.13
19795;BME280;10057;59.402;17.866;2023-04-28T03:09:42;101009.41;;;2.75;71.13
19795;BME280;10057;59.402;17.866;2023-04-28T03:12:11;101005.03;;;2.77;71.14
19795;BME280;10057;59.402;17.866;2023-04-28T03:14:38;101011.13;;;2.82;71.31
19795;BME280;10057;59.402;17.866;2023-04-28T03:17:04;101011.13;;;2.87;71.22
19795;BME280;10057;59.402;17.866;2023-04-28T03:19:31;101015.50;;;2.90;71.19
19795;BME280;10057;59.402;17.866;2023-04-28T03:21:58;101008.50;;;2.95;71.26
19795;BME280;10057;59.402;17.866;2023-04-28T03:24:25;101008.50;;;3.01;71.11
19795;BME280;10057;59.402;17.866;2023-04-28T03:26:52;101009.38;;;3.04;71.29
19795;BME280;10057;59.402;17.866;2023-04-28T03:29:18;101010.22;;;3.03;71.29
19795;BME280;10057;59.402;17.866;2023-04-28T03:31:45;101016.34;;;3.07;71.46
19795;BME280;10057;59.402;17.866;2023-04-28T03:34:12;101013.72;;;3.07;71.11
19795;BME280;10057;59.402;17.866;2023-04-28T03:36:40;101015.47;;;3.08;71.49
19795;BME280;10057;59.402;17.866;2023-04-28T03:39:06;101020.69;;;3.11;71.85
19795;BME280;10057;59.402;17.866;2023-04-28T03:41:35;101030.31;;;3.15;71.73
19795;BME280;10057;59.402;17.866;2023-04-28T03:44:01;101021.56;;;3.16;71.78
19795;BME280;10057;59.402;17.866;2023-04-28T03:46:28;101030.31;;;3.18;71.54
19795;BME280;10057;59.402;17.866;2023-04-28T03:48:55;101032.03;;;3.21;71.98
19795;BME280;10057;59.402;17.866;2023-04-28T03:51:21;101033.78;;;3.23;72.13
19795;BME280;10057;59.402;17.866;2023-04-28T03:53:48;101033.78;;;3.26;72.10
19795;BME280;10057;59.402;17.866;2023-04-28T03:56:15;101033.78;;;3.26;72.06
19795;BME280;10057;59.402;17.866;2023-04-28T03:58:42;101039.00;;;3.32;71.83
19795;BME280;10057;59.402;17.866;2023-04-28T04:01:08;101030.25;;;3.30;72.42
19795;BME280;10057;59.402;17.866;2023-04-28T04:03:36;101038.13;;;3.37;72.43
19795;BME280;10057;59.402;17.866;2023-04-28T04:06:03;101039.00;;;3.39;72.47
19795;BME280;10057;59.402;17.866;2023-04-28T04:08:30;101040.75;;;3.40;72.59
19795;BME280;10057;59.402;17.866;2023-04-28T04:10:58;101041.59;;;3.40;72.75
19795;BME280;10057;59.402;17.866;2023-04-28T04:13:24;101047.72;;;3.42;72.74
19795;BME280;10057;59.402;17.866;2023-04-28T04:15:51;101042.47;;;3.41;73.06
19795;BME280;10057;59.402;17.866;2023-04-28T04:18:18;101043.34;;;3.43;72.96
19795;BME280;10057;59.402;17.866;2023-04-28T04:20:45;101049.44;;;3.45;72.78
19795;BME280;10057;59.402;17.866;2023-04-28T04:23:11;101046.81;;;3.48;72.89
19795;BME280;10057;59.402;17.866;2023-04-28T04:25:38;101050.31;;;3.51;72.56
19795;BME280;10057;59.402;17.866;2023-04-28T04:28:05;101049.44;;;3.54;72.80
19795;BME280;10057;59.402;17.866;2023-04-28T04:30:31;101052.03;;;3.55;72.93
19795;BME280;10057;59.402;17.866;2023-04-28T04:32:58;101057.31;;;3.52;72.97
19795;BME280;10057;59.402;17.866;2023-04-28T04:35:25;101059.94;;;3.51;73.26
19795;BME280;10057;59.402;17.866;2023-04-28T04:37:51;101058.19;;;3.50;73.42
19795;BME280;10057;59.402;17.866;2023-04-28T04:40:18;101061.72;;;3.49;73.48
19795;BME280;10057;59.402;17.866;2023-04-28T04:42:45;101049.44;;;3.48;73.61
19795;BME280;10057;59.402;17.866;2023-04-28T04:45:12;101065.19;;;3.45;73.46
19795;BME280;10057;59.402;17.866;2023-04-28T04:47:39;101066.97;;;3.43;73.69
19795;BME280;10057;59.402;17.866;2023-04-28T04:50:06;101064.31;;;3.38;73.86
19795;BME280;10057;59.402;17.866;2023-04-28T04:52:33;101068.72;;;3.38;73.92
19795;BME280;10057;59.402;17.866;2023-04-28T04:55:00;101074.84;;;3.37;74.22
19795;BME280;10057;59.402;17.866;2023-04-28T04:57:26;101064.34;;;3.37;74.38
19795;BME280;10057;59.402;17.866;2023-04-28T04:59:53;101072.22;;;3.35;74.21
19795;BME280;10057;59.402;17.866;2023-04-28T05:02:20;101079.19;;;3.35;74.06
19795;BME280;10057;59.402;17.866;2023-04-28T05:04:46;101079.19;;;3.38;73.86
19795;BME280;10057;59.402;17.866;2023-04-28T05:07:13;101082.69;;;3.38;74.00
19795;BME280;10057;59.402;17.866;2023-04-28T05:09:40;101078.34;;;3.36;73.95
19795;BME280;10057;59.402;17.866;2023-04-28T05:12:07;101080.94;;;3.37;74.09
19795;BME280;10057;59.402;17.866;2023-04-28T05:14:33;101092.34;;;3.33;74.33
19795;BME280;10057;59.402;17.866;2023-04-28T05:17:00;101090.59;;;3.30;74.26
19795;BME280;10057;59.402;17.866;2023-04-28T05:19:28;101091.47;;;3.29;74.40
19795;BME280;10057;59.402;17.866;2023-04-28T05:21:54;101085.34;;;3.29;74.48
19795;BME280;10057;59.402;17.866;2023-04-28T05:24:21;101082.72;;;3.26;74.45
19795;BME280;10057;59.402;17.866;2023-04-28T05:26:51;101088.84;;;3.20;74.53
19795;BME280;10057;59.402;17.866;2023-04-28T05:29:20;101094.97;;;3.16;74.76
19795;BME280;10057;59.402;17.866;2023-04-28T05:31:47;101088.00;;;3.15;74.74
19795;BME280;10057;59.402;17.866;2023-04-28T05:34:14;101094.97;;;3.16;74.97
19795;BME280;10057;59.402;17.866;2023-04-28T05:36:42;101098.47;;;3.15;75.09
19795;BME280;10057;59.402;17.866;2023-04-28T05:39:09;101100.22;;;3.16;75.43
19795;BME280;10057;59.402;17.866;2023-04-28T05:41:36;101101.97;;;3.17;75.36
19795;BME280;10057;59.402;17.866;2023-04-28T05:44:03;101101.09;;;3.15;75.26
19795;BME280;10057;59.402;17.866;2023-04-28T05:46:29;101101.09;;;3.15;75.47
19795;BME280;10057;59.402;17.866;2023-04-28T05:48:56;101101.97;;;3.14;75.35
19795;BME280;10057;59.402;17.866;2023-04-28T05:51:23;101105.47;;;3.19;75.48
19795;BME280;10057;59.402;17.866;2023-04-28T05:53:50;101097.59;;;3.18;75.50
19795;BME280;10057;59.402;17.866;2023-04-28T05:56:16;101105.47;;;3.22;75.50
19795;BME280;10057;59.402;17.866;2023-04-28T05:58:43;101107.19;;;3.26;75.74
19795;BME280;10057;59.402;17.866;2023-04-28T06:01:10;101109.81;;;3.29;75.28
19795;BME280;10057;59.402;17.866;2023-04-28T06:03:37;101105.44;;;3.35;75.47
19795;BME280;10057;59.402;17.866;2023-04-28T06:06:06;101108.06;;;3.38;75.26
19795;BME280;10057;59.402;17.866;2023-04-28T06:08:36;101111.53;;;3.38;75.22
19795;BME280;10057;59.402;17.866;2023-04-28T06:11:03;101111.56;;;3.40;75.29
19795;BME280;10057;59.402;17.866;2023-04-28T06:13:30;101120.28;;;3.45;75.47
19795;BME280;10057;59.402;17.866;2023-04-28T06:15:56;101117.66;;;3.42;75.21
19795;BME280;10057;59.402;17.866;2023-04-28T06:18:23;101126.41;;;3.47;75.31
19795;BME280;10057;59.402;17.866;2023-04-28T06:20:51;101127.28;;;3.50;75.54
19795;BME280;10057;59.402;17.866;2023-04-28T06:23:17;101136.06;;;3.39;75.08
19795;BME280;10057;59.402;17.866;2023-04-28T06:25:44;101132.53;;;3.30;75.25
19795;BME280;10057;59.402;17.866;2023-04-28T06:28:11;101141.28;;;3.23;75.55
19795;BME280;10057;59.402;17.866;2023-04-28T06:30:38;101142.19;;;3.19;75.43
19795;BME280;10057;59.402;17.866;2023-04-28T06:33:05;101143.03;;;3.20;76.05
19795;BME280;10057;59.402;17.866;2023-04-28T06:35:33;101139.56;;;3.22;76.15
19795;BME280;10057;59.402;17.866;2023-04-28T06:38:05;101147.38;;;3.31;76.00
19795;BME280;10057;59.402;17.866;2023-04-28T06:40:31;101154.41;;;3.34;75.73
19795;BME280;10057;59.402;17.866;2023-04-28T06:42:58;101157.03;;;3.39;75.96
19795;BME280;10057;59.402;17.866;2023-04-28T06:45:25;101158.75;;;3.44;75.73
19795;BME280;10057;59.402;17.866;2023-04-28T06:47:52;101160.53;;;3.45;75.65
19795;BME280;10057;59.402;17.866;2023-04-28T06:50:22;101163.13;;;3.35;75.74
19795;BME280;10057;59.402;17.866;2023-04-28T06:52:49;101165.75;;;3.27;75.77
19795;BME280;10057;59.402;17.866;2023-04-28T06:55:16;101175.38;;;3.29;75.99
19795;BME280;10057;59.402;17.866;2023-04-28T06:57:43;101172.75;;;3.29;76.22
19795;BME280;10057;59.402;17.866;2023-04-28T07:00:10;101171.91;;;3.32;76.00
19795;BME280;10057;59.402;17.866;2023-04-28T07:02:38;101175.41;;;3.36;76.19
19795;BME280;10057;59.402;17.866;2023-04-28T07:05:05;101170.16;;;3.36;76.33
19795;BME280;10057;59.402;17.866;2023-04-28T07:07:32;101177.97;;;3.42;75.99
19795;BME280;10057;59.402;17.866;2023-04-28T07:09:59;101171.88;;;3.40;76.05
19795;BME280;10057;59.402;17.866;2023-04-28T07:12:26;101171.88;;;3.38;75.66
19795;BME280;10057;59.402;17.866;2023-04-28T07:14:53;101184.13;;;3.38;75.99
19795;BME280;10057;59.402;17.866;2023-04-28T07:17:21;101185.88;;;3.36;76.06
19795;BME280;10057;59.402;17.866;2023-04-28T07:19:48;101174.53;;;3.29;75.90
19795;BME280;10057;59.402;17.866;2023-04-28T07:22:16;101185.88;;;3.26;76.10
19795;BME280;10057;59.402;17.866;2023-04-28T07:24:43;101177.16;;;3.29;76.12
19795;BME280;10057;59.402;17.866;2023-04-28T07:27:10;101190.25;;;3.37;75.91
19795;BME280;10057;59.402;17.866;2023-04-28T07:29:36;101195.50;;;3.40;75.89
19795;BME280;10057;59.402;17.866;2023-04-28T07:32:03;101194.59;;;3.47;76.09
19795;BME280;10057;59.402;17.866;2023-04-28T07:34:39;101199.84;;;3.53;76.09
19795;BME280;10057;59.402;17.866;2023-04-28T07:37:06;101206.84;;;3.54;75.63
19795;BME280;10057;59.402;17.866;2023-04-28T07:39:33;101201.59;;;3.54;75.60
19795;BME280;10057;59.402;17.866;2023-04-28T07:42:01;101201.59;;;3.54;75.50
19795;BME280;10057;59.402;17.866;2023-04-28T07:44:29;101206.84;;;3.57;75.50
19795;BME280;10057;59.402;17.866;2023-04-28T07:46:56;101206.84;;;3.60;75.36
19795;BME280;10057;59.402;17.866;2023-04-28T07:49:25;101209.47;;;3.66;75.54
19795;BME280;10057;59.402;17.866;2023-04-28T07:51:51;101214.72;;;3.69;75.62
19795;BME280;10057;59.402;17.866;2023-04-28T07:54:20;101207.72;;;3.67;75.14
19795;BME280;10057;59.402;17.866;2023-04-28T07:56:47;101220.81;;;3.68;75.19
19795;BME280;10057;59.402;17.866;2023-04-28T07:59:13;101219.06;;;3.70;75.30
19795;BME280;10057;59.402;17.866;2023-04-28T08:01:40;101233.06;;;3.72;75.26
19795;BME280;10057;59.402;17.866;2023-04-28T08:04:08;101233.94;;;3.70;75.39
19795;BME280;10057;59.402;17.866;2023-04-28T08:06:35;101233.94;;;3.70;75.49
19795;BME280;10057;59.402;17.866;2023-04-28T08:09:02;101234.81;;;3.67;75.05
19795;BME280;10057;59.402;17.866;2023-04-28T08:11:31;101233.09;;;3.60;75.34
19795;BME280;10057;59.402;17.866;2023-04-28T08:13:59;101230.47;;;3.60;75.04
19795;BME280;10057;59.402;17.866;2023-04-28T08:16:30;101236.56;;;3.65;75.27
19795;BME280;10057;59.402;17.866;2023-04-28T08:18:57;101235.69;;;3.74;75.46
19795;BME280;10057;59.402;17.866;2023-04-28T08:21:25;101247.06;;;3.84;74.76
19795;BME280;10057;59.402;17.866;2023-04-28T08:23:52;101242.66;;;3.89;74.49
19795;BME280;10057;59.402;17.866;2023-04-28T08:26:19;101239.16;;;3.94;74.13
19795;BME280;10057;59.402;17.866;2023-04-28T08:28:46;101247.88;;;3.99;74.17
19795;BME280;10057;59.402;17.866;2023-04-28T08:31:12;101240.00;;;4.06;74.17
19795;BME280;10057;59.402;17.866;2023-04-28T08:33:39;101242.63;;;4.15;73.46
19795;BME280;10057;59.402;17.866;2023-04-28T08:36:10;101250.47;;;4.24;73.84
19795;BME280;10057;59.402;17.866;2023-04-28T08:38:40;101236.44;;;4.34;73.61
19795;BME280;10057;59.402;17.866;2023-04-28T08:41:07;101241.63;;;4.48;73.54
19795;BME280;10057;59.402;17.866;2023-04-28T08:43:35;101249.41;;;4.65;73.43
19795;BME280;10057;59.402;17.866;2023-04-28T08:46:05;101253.75;;;4.73;73.13
19795;BME280;10057;59.402;17.866;2023-04-28T08:48:40;101245.84;;;4.80;72.62
19795;BME280;10057;59.402;17.866;2023-04-28T08:51:07;101247.53;;;4.88;72.45
19795;BME280;10057;59.402;17.866;2023-04-28T08:53:38;101250.16;;;4.93;72.53
19795;BME280;10057;59.402;17.866;2023-04-28T08:56:26;101240.47;;;4.99;72.54
19795;BME280;10057;59.402;17.866;2023-04-28T08:59:01;101245.72;;;5.03;72.14
19795;BME280;10057;59.402;17.866;2023-04-28T09:01:31;101246.47;;;5.18;71.86
19795;BME280;10057;59.402;17.866;2023-04-28T09:04:02;101256.84;;;5.38;71.96
19795;BME280;10057;59.402;17.866;2023-04-28T09:06:40;101242.69;;;5.53;71.09
19795;BME280;10057;59.402;17.866;2023-04-28T09:09:23;101244.34;;;5.66;71.44
19795;BME280;10057;59.402;17.866;2023-04-28T09:11:51;101247.69;;;5.81;70.69
19795;BME280;10057;59.402;17.866;2023-04-28T09:14:18;101246.75;;;5.92;69.80
19795;BME280;10057;59.402;17.866;2023-04-28T09:16:44;101249.34;;;5.97;69.74
19795;BME280;10057;59.402;17.866;2023-04-28T09:19:11;101248.38;;;6.09;70.11
19795;BME280;10057;59.402;17.866;2023-04-28T09:21:54;101243.94;;;6.12;67.91
19795;BME280;10057;59.402;17.866;2023-04-28T09:24:35;101257.16;;;6.06;68.51
19795;BME280;10057;59.402;17.866;2023-04-28T09:27:06;101257.09;;;6.11;68.21
19795;BME280;10057;59.402;17.866;2023-04-28T09:29:51;101245.56;;;6.21;68.16
19795;BME280;10057;59.402;17.866;2023-04-28T09:32:20;101248.06;;;6.32;67.47
19795;BME280;10057;59.402;17.866;2023-04-28T09:34:53;101248.03;;;6.36;67.28
19795;BME280;10057;59.402;17.866;2023-04-28T09:37:23;101251.47;;;6.41;66.99
19795;BME280;10057;59.402;17.866;2023-04-28T09:39:52;101253.22;;;6.43;66.03
19795;BME280;10057;59.402;17.866;2023-04-28T09:42:39;101242.75;;;6.39;66.80
19795;BME280;10057;59.402;17.866;2023-04-28T09:45:10;101247.03;;;6.45;66.96
19795;BME280;10057;59.402;17.866;2023-04-28T09:47:41;101243.41;;;6.55;66.84
19795;BME280;10057;59.402;17.866;2023-04-28T09:50:12;101252.06;;;6.65;64.68
19795;BME280;10057;59.402;17.866;2023-04-28T09:52:41;101253.06;;;6.58;64.51
19795;BME280;10057;59.402;17.866;2023-04-28T09:55:11;101243.41;;;6.55;64.42
19795;BME280;10057;59.402;17.866;2023-04-28T09:57:38;101250.31;;;6.65;64.90
19795;BME280;10057;59.402;17.866;2023-04-28T10:00:06;101257.16;;;6.79;64.83
19795;BME280;10057;59.402;17.866;2023-04-28T10:02:35;101239.53;;;6.84;64.13
19795;BME280;10057;59.402;17.866;2023-04-28T10:05:06;101250.88;;;6.91;64.38
19795;BME280;10057;59.402;17.866;2023-04-28T10:07:37;101250.72;;;7.01;64.31
19795;BME280;10057;59.402;17.866;2023-04-28T10:10:06;101251.44;;;7.11;64.06
19795;BME280;10057;59.402;17.866;2023-04-28T10:12:33;101243.50;;;7.12;64.00
19795;BME280;10057;59.402;17.866;2023-04-28T10:15:00;101247.00;;;7.13;63.79
19795;BME280;10057;59.402;17.866;2023-04-28T10:17:28;101250.47;;;7.17;64.13
19795;BME280;10057;59.402;17.866;2023-04-28T10:19:55;101238.81;;;7.31;64.67
19795;BME280;10057;59.402;17.866;2023-04-28T10:22:45;101238.28;;;7.62;64.82
19795;BME280;10057;59.402;17.866;2023-04-28T10:25:34;101231.75;;;7.84;64.08
19795;BME280;10057;59.402;17.866;2023-04-28T10:28:06;101228.91;;;7.95;63.34
19795;BME280;10057;59.402;17.866;2023-04-28T10:30:33;101234.09;;;8.01;62.99
19795;BME280;10057;59.402;17.866;2023-04-28T10:40:37;101232.84;;;8.21;61.05
19795;BME280;10057;59.402;17.866;2023-04-28T10:43:06;101216.78;;;8.30;61.32
19795;BME280;10057;59.402;17.866;2023-04-28T10:48:15;101229.22;;;8.70;59.89
19795;BME280;10057;59.402;17.866;2023-04-28T10:56:21;101227.00;;;8.90;58.01
19795;BME280;10057;59.402;17.866;2023-04-28T11:08:55;101238.31;;;9.34;56.61
19795;BME280;10057;59.402;17.866;2023-04-28T11:11:30;101236.56;;;9.33;56.86
19795;BME280;10057;59.402;17.866;2023-04-28T11:16:49;101227.03;;;9.62;55.81
19795;BME280;10057;59.402;17.866;2023-04-28T11:19:30;101227.03;;;9.62;54.51
19795;BME280;10057;59.402;17.866;2023-04-28T11:21:59;101232.97;;;9.71;55.36
19795;BME280;10057;59.402;17.866;2023-04-28T11:24:27;101229.75;;;9.93;55.88
19795;BME280;10057;59.402;17.866;2023-04-28T11:26:56;101224.66;;;10.18;55.39
19795;BME280;10057;59.402;17.866;2023-04-28T11:31:59;101229.50;;;10.36;53.25
19795;BME280;10057;59.402;17.866;2023-04-28T11:34:26;101231.06;;;10.42;53.75
19795;BME280;10057;59.402;17.866;2023-04-28T11:36:53;101235.34;;;10.48;53.44
19795;BME280;10057;59.402;17.866;2023-04-28T11:39:27;101235.47;;;10.43;52.89
19795;BME280;10057;59.402;17.866;2023-04-28T11:41:55;101234.00;;;10.33;52.64
19795;BME280;10057;59.402;17.866;2023-04-28T11:44:27;101236.88;;;10.24;52.53
19795;BME280;10057;59.402;17.866;2023-04-28T11:46:56;101237.09;;;10.16;51.95
19795;BME280;10057;59.402;17.866;2023-04-28T11:49:30;101249.03;;;10.00;50.02
19795;BME280;10057;59.402;17.866;2023-04-28T11:52:05;101252.31;;;9.75;50.46
19795;BME280;10057;59.402;17.866;2023-04-28T11:54:32;101258.06;;;9.57;49.75
19795;BME280;10057;59.402;17.866;2023-04-28T11:57:00;101255.00;;;9.38;49.85
19795;BME280;10057;59.402;17.866;2023-04-28T11:59:31;101258.06;;;9.19;49.81
19795;BME280;10057;59.402;17.866;2023-04-28T12:02:01;101246.88;;;9.08;50.63
19795;BME280;10057;59.402;17.866;2023-04-28T12:04:32;101248.66;;;9.08;50.49
19795;BME280;10057;59.402;17.866;2023-04-28T12:07:08;101246.72;;;9.14;50.42
19795;BME280;10057;59.402;17.866;2023-04-28T12:09:40;101251.22;;;9.11;50.51
19795;BME280;10057;59.402;17.866;2023-04-28T12:12:10;101254.00;;;9.06;50.49
19795;BME280;10057;59.402;17.866;2023-04-28T12:14:58;101255.75;;;9.06;50.70
19795;BME280;10057;59.402;17.866;2023-04-28T12:17:31;101244.13;;;9.13;50.89
19795;BME280;10057;59.402;17.866;2023-04-28T12:20:01;101236.72;;;9.27;51.36
19795;BME280;10057;59.402;17.866;2023-04-28T12:22:28;101237.06;;;9.49;51.20
19795;BME280;10057;59.402;17.866;2023-04-28T12:25:08;101238.34;;;9.68;51.61
19795;BME280;10057;59.402;17.866;2023-04-28T12:27:36;101238.78;;;9.86;50.85
19795;BME280;10057;59.402;17.866;2023-04-28T12:32:46;101227.38;;;10.15;50.01
19795;BME280;10057;59.402;17.866;2023-04-28T12:35:13;101237.09;;;10.16;48.52
19795;BME280;10057;59.402;17.866;2023-04-28T12:37:42;101244.28;;;10.11;48.99
19795;BME280;10057;59.402;17.866;2023-04-28T12:40:09;101243.47;;;10.09;49.35
19795;BME280;10057;59.402;17.866;2023-04-28T12:42:36;101247.69;;;10.16;49.60
19795;BME280;10057;59.402;17.866;2023-04-28T12:45:03;101242.69;;;10.38;49.38
19795;BME280;10057;59.402;17.866;2023-04-28T12:47:31;101234.56;;;10.44;48.84
19795;BME280;10057;59.402;17.866;2023-04-28T12:49:58;101239.63;;;10.53;48.76
19795;BME280;10057;59.402;17.866;2023-04-28T12:52:25;101236.56;;;10.67;48.95
19795;BME280;10057;59.402;17.866;2023-04-28T12:54:52;101227.25;;;10.82;47.69
19795;BME280;10057;59.402;17.866;2023-04-28T12:57:18;101223.34;;;10.94;48.21
19795;BME280;10057;59.402;17.866;2023-04-28T12:59:46;101219.16;;;11.14;47.87
19795;BME280;10057;59.402;17.866;2023-04-28T13:02:18;101221.00;;;11.39;47.79
19795;BME280;10057;59.402;17.866;2023-04-28T13:04:44;101217.91;;;11.53;47.03
19795;BME280;10057;59.402;17.866;2023-04-28T13:07:12;101213.28;;;11.58;47.38
19795;BME280;10057;59.402;17.866;2023-04-28T13:09:40;101216.03;;;11.55;45.81
19795;BME280;10057;59.402;17.866;2023-04-28T13:12:08;101230.78;;;11.38;46.05
19795;BME280;10057;59.402;17.866;2023-04-28T13:14:37;101221.31;;;11.30;45.71
19795;BME280;10057;59.402;17.866;2023-04-28T13:17:04;101225.66;;;11.32;45.75
19795;BME280;10057;59.402;17.866;2023-04-28T13:19:30;101225.66;;;11.32;45.59
19795;BME280;10057;59.402;17.866;2023-04-28T13:21:58;101216.66;;;11.36;45.50
19795;BME280;10057;59.402;17.866;2023-04-28T13:24:25;101212.78;;;11.47;45.63
19795;BME280;10057;59.402;17.866;2023-04-28T13:26:52;101212.59;;;11.53;44.91